Time;durP1;ratioP1;P1;durP2;ratioP2;P2;SDS_P1;SDS_P2;PMS_P1;PMS_P2;Temp;Humidity;BMP_temperature;BMP_pressure;BME280_temperature;BME280_humidity;BME280_pressure;Samples;Min_cycle;Max_cycle;Signal;HPM_P1;HPM_P2
2024/01/16 00:00:38;;;;;;;11.50;4.23;;;;;;;;;;6089019;23;20154;-91
2024/01/16 00:03:47;;;;;;;10.63;4.30;;;;;;;;;;6091515;23;20154;-94
2024/01/16 00:06:53;;;;;;;9.20;3.90;;;;;;;;;;6091979;23;20155;-92
2024/01/16 00:09:58;;;;;;;9.57;4.23;;;;;;;;;;6090969;23;20170;-92
2024/01/16 00:13:05;;;;;;;10.00;3.93;;;;;;;;;;6090695;23;20178;-92
2024/01/16 00:16:12;;;;;;;8.13;4.27;;;;;;;;;;6090048;23;20179;-90
2024/01/16 00:19:20;;;;;;;8.70;4.13;;;;;;;;;;6091354;23;20170;-91
2024/01/16 00:22:27;;;;;;;7.87;3.60;;;;;;;;;;6091122;23;20232;-92
2024/01/16 00:25:37;;;;;;;11.30;4.20;;;;;;;;;;6091055;23;20178;-92
2024/01/16 00:28:45;;;;;;;9.23;3.83;;;;;;;;;;6092300;23;20212;-92
2024/01/16 00:31:51;;;;;;;11.30;4.70;;;;;;;;;;6091006;23;20175;-92
2024/01/16 00:35:01;;;;;;;10.73;4.90;;;;;;;;;;6092184;23;20195;-91
2024/01/16 00:41:28;;;;;;;9.00;3.47;;;;;;;;;;6063800;23;20190;-92
2024/01/16 00:44:35;;;;;;;10.80;3.63;;;;;;;;;;6062108;23;20172;-92
2024/01/16 00:47:43;;;;;;;10.57;4.37;;;;;;;;;;6061545;23;20168;-90
2024/01/16 00:50:50;;;;;;;14.07;4.17;;;;;;;;;;6061373;23;20167;-89
2024/01/16 00:53:56;;;;;;;12.40;4.43;;;;;;;;;;6061499;23;20167;-91
2024/01/16 00:57:02;;;;;;;13.90;5.00;;;;;;;;;;6061190;23;20155;-92
2024/01/16 01:00:09;;;;;;;11.63;4.57;;;;;;;;;;6045078;23;20159;-89
2024/01/16 01:03:16;;;;;;;11.30;4.60;;;;;;;;;;6060583;23;20175;-91
2024/01/16 01:06:23;;;;;;;11.40;4.80;;;;;;;;;;6059157;23;20167;-92
2024/01/16 01:09:29;;;;;;;14.33;4.10;;;;;;;;;;6061020;23;20223;-91
2024/01/16 01:15:58;;;;;;;11.07;4.10;;;;;;;;;;6062560;23;20188;-89
2024/01/16 01:19:04;;;;;;;8.63;4.10;;;;;;;;;;6063094;23;20175;-91
2024/01/16 01:22:17;;;;;;;12.90;4.57;;;;;;;;;;6062150;23;20190;-92
2024/01/16 01:25:25;;;;;;;10.03;3.80;;;;;;;;;;6063497;23;20151;-92
2024/01/16 01:28:33;;;;;;;9.63;3.70;;;;;;;;;;6062318;23;20247;-91
2024/01/16 01:31:38;;;;;;;12.30;4.10;;;;;;;;;;6062528;23;20172;-92
2024/01/16 01:34:45;;;;;;;7.23;3.50;;;;;;;;;;6063539;23;20159;-92
2024/01/16 01:37:53;;;;;;;8.30;4.13;;;;;;;;;;6063829;23;20229;-91
2024/01/16 01:40:59;;;;;;;9.07;3.43;;;;;;;;;;6063498;23;20607;-89
2024/01/16 01:44:04;;;;;;;10.57;3.60;;;;;;;;;;6061680;23;20175;-91
2024/01/16 01:47:11;;;;;;;6.10;3.03;;;;;;;;;;6062322;23;20182;-93
2024/01/16 01:50:17;;;;;;;7.20;3.57;;;;;;;;;;6061939;23;20170;-92
2024/01/16 01:53:26;;;;;;;7.00;3.27;;;;;;;;;;6061599;23;20182;-92
2024/01/16 01:56:32;;;;;;;9.47;3.07;;;;;;;;;;6061721;23;20184;-93
2024/01/16 01:59:38;;;;;;;8.90;3.57;;;;;;;;;;6061178;23;20217;-92
2024/01/16 02:02:44;;;;;;;13.73;3.13;;;;;;;;;;6062144;23;20227;-91
2024/01/16 02:05:54;;;;;;;7.50;3.33;;;;;;;;;;6061877;23;20212;-92
2024/01/16 02:09:06;;;;;;;8.43;3.33;;;;;;;;;;6061853;23;20183;-90
2024/01/16 02:12:13;;;;;;;7.80;3.33;;;;;;;;;;6062363;23;20521;-92
2024/01/16 02:15:18;;;;;;;8.37;3.27;;;;;;;;;;6061703;23;20543;-90
2024/01/16 02:18:28;;;;;;;7.47;3.27;;;;;;;;;;6062049;23;20180;-91
2024/01/16 02:21:39;;;;;;;8.27;2.80;;;;;;;;;;6061017;23;20231;-92
2024/01/16 02:24:49;;;;;;;9.87;2.77;;;;;;;;;;6062820;23;20193;-92
2024/01/16 02:27:56;;;;;;;5.27;2.70;;;;;;;;;;6062545;23;20240;-91
2024/01/16 02:31:02;;;;;;;7.00;3.40;;;;;;;;;;6062241;23;20664;-90
2024/01/16 02:34:09;;;;;;;9.57;3.33;;;;;;;;;;6061130;23;20201;-91
2024/01/16 02:37:17;;;;;;;9.37;2.70;;;;;;;;;;6061819;23;20231;-94
2024/01/16 02:40:26;;;;;;;8.13;3.00;;;;;;;;;;6060905;23;20194;-91
2024/01/16 02:43:32;;;;;;;6.40;2.87;;;;;;;;;;6061011;23;20293;-93
2024/01/16 02:46:39;;;;;;;11.40;2.63;;;;;;;;;;6060666;23;20213;-92
2024/01/16 02:49:45;;;;;;;6.20;2.90;;;;;;;;;;6059790;23;20167;-94
2024/01/16 02:52:51;;;;;;;8.83;2.50;;;;;;;;;;6060850;23;20204;-93
2024/01/16 02:55:59;;;;;;;6.77;2.57;;;;;;;;;;6060546;23;20166;-94
2024/01/16 02:59:05;;;;;;;5.30;2.97;;;;;;;;;;6045144;23;20221;-91
2024/01/16 03:02:13;;;;;;;8.57;3.03;;;;;;;;;;6060607;23;20198;-92
2024/01/16 03:05:18;;;;;;;7.03;2.90;;;;;;;;;;6060520;23;20171;-93
2024/01/16 03:08:28;;;;;;;6.43;2.57;;;;;;;;;;6045359;23;20263;-92
2024/01/16 03:11:35;;;;;;;6.77;2.50;;;;;;;;;;6061756;23;20192;-93
2024/01/16 03:14:46;;;;;;;6.87;2.80;;;;;;;;;;6061375;23;20183;-91
2024/01/16 03:17:53;;;;;;;5.20;2.43;;;;;;;;;;6059355;23;20211;-92
2024/01/16 03:21:00;;;;;;;5.13;2.27;;;;;;;;;;6060118;23;20197;-93
2024/01/16 03:24:07;;;;;;;8.10;2.40;;;;;;;;;;6059786;23;20196;-94
2024/01/16 03:27:14;;;;;;;4.40;2.33;;;;;;;;;;6061349;23;20191;-93
2024/01/16 03:30:20;;;;;;;4.60;2.20;;;;;;;;;;6059646;23;20247;-93
2024/01/16 03:33:26;;;;;;;7.17;2.57;;;;;;;;;;6059756;23;20557;-93
2024/01/16 03:36:32;;;;;;;5.70;2.60;;;;;;;;;;6060262;23;20175;-94
2024/01/16 03:39:38;;;;;;;7.53;2.73;;;;;;;;;;6060793;23;20223;-92
2024/01/16 03:42:46;;;;;;;5.10;2.60;;;;;;;;;;6060394;23;20198;-92
2024/01/16 03:45:58;;;;;;;6.50;2.40;;;;;;;;;;6059784;23;20174;-93
2024/01/16 03:49:04;;;;;;;5.47;2.60;;;;;;;;;;6064515;23;20155;-93
2024/01/16 03:52:20;;;;;;;6.77;2.70;;;;;;;;;;6060398;23;20230;-93
2024/01/16 03:55:31;;;;;;;5.90;2.50;;;;;;;;;;6060459;23;20200;-92
2024/01/16 03:58:42;;;;;;;6.20;2.40;;;;;;;;;;6043874;23;20212;-92
2024/01/16 04:01:49;;;;;;;8.07;2.60;;;;;;;;;;6060370;23;20154;-92
2024/01/16 04:04:55;;;;;;;6.37;2.20;;;;;;;;;;6060448;23;20225;-91
2024/01/16 04:08:00;;;;;;;8.13;2.80;;;;;;;;;;6061496;23;20171;-92
2024/01/16 04:11:06;;;;;;;7.43;2.87;;;;;;;;;;6060351;23;20243;-93
2024/01/16 04:14:14;;;;;;;4.77;2.60;;;;;;;;;;6059134;23;20170;-92
2024/01/16 04:17:20;;;;;;;6.63;2.47;;;;;;;;;;6060286;23;20196;-91
2024/01/16 04:20:26;;;;;;;6.87;2.50;;;;;;;;;;6060515;23;20223;-90
2024/01/16 04:23:33;;;;;;;5.60;2.30;;;;;;;;;;6045544;23;20305;-91
2024/01/16 04:26:40;;;;;;;7.70;2.60;;;;;;;;;;6060442;23;20171;-93
2024/01/16 04:29:48;;;;;;;5.03;2.20;;;;;;;;;;6061073;23;20318;-89
2024/01/16 04:32:55;;;;;;;8.43;2.87;;;;;;;;;;6061491;23;20166;-89
2024/01/16 04:36:01;;;;;;;13.17;3.00;;;;;;;;;;6060687;23;20216;-91
2024/01/16 04:39:08;;;;;;;6.50;2.10;;;;;;;;;;6060230;23;20244;-92
2024/01/16 04:42:14;;;;;;;6.80;2.67;;;;;;;;;;6058681;23;20195;-89
2024/01/16 04:45:23;;;;;;;5.03;2.10;;;;;;;;;;6058114;23;20175;-92
2024/01/16 04:48:30;;;;;;;5.83;2.60;;;;;;;;;;6059052;23;20168;-92
2024/01/16 04:51:36;;;;;;;9.13;2.67;;;;;;;;;;6058712;23;20159;-90
2024/01/16 04:54:42;;;;;;;4.47;2.37;;;;;;;;;;6061449;23;20287;-91
2024/01/16 04:57:50;;;;;;;6.33;2.30;;;;;;;;;;6060977;23;20179;-89
2024/01/16 05:00:57;;;;;;;4.77;2.30;;;;;;;;;;6076360;23;20175;-89
2024/01/16 05:07:22;;;;;;;6.13;2.67;;;;;;;;;;6059133;23;20171;-90
2024/01/16 05:10:29;;;;;;;7.83;2.63;;;;;;;;;;6059523;23;20175;-89
2024/01/16 05:13:34;;;;;;;3.90;1.90;;;;;;;;;;6059268;23;20216;-90
2024/01/16 05:16:42;;;;;;;4.40;2.30;;;;;;;;;;6043820;23;20216;-90
2024/01/16 05:19:50;;;;;;;4.97;2.50;;;;;;;;;;6059838;23;20167;-90
2024/01/16 05:22:59;;;;;;;3.93;2.20;;;;;;;;;;6063260;23;20195;-90
2024/01/16 05:26:05;;;;;;;3.90;2.00;;;;;;;;;;6060391;23;20174;-92
2024/01/16 05:29:11;;;;;;;6.87;2.60;;;;;;;;;;6059778;23;20623;-92
2024/01/16 05:32:25;;;;;;;5.27;2.37;;;;;;;;;;6059717;23;20186;-92
2024/01/16 05:35:31;;;;;;;5.30;2.47;;;;;;;;;;6060168;23;20216;-92
2024/01/16 05:38:37;;;;;;;10.67;2.40;;;;;;;;;;6061322;23;20216;-91
2024/01/16 05:41:44;;;;;;;6.30;2.33;;;;;;;;;;6061369;23;20248;-93
2024/01/16 05:44:53;;;;;;;9.03;2.70;;;;;;;;;;6062038;23;20184;-91
2024/01/16 05:48:06;;;;;;;7.10;2.87;;;;;;;;;;6063422;23;20213;-92
2024/01/16 05:51:13;;;;;;;7.30;3.03;;;;;;;;;;6061767;23;20175;-91
2024/01/16 05:54:20;;;;;;;7.97;3.07;;;;;;;;;;6046280;23;20186;-91
2024/01/16 05:57:27;;;;;;;5.20;2.67;;;;;;;;;;6060283;23;20237;-93
2024/01/16 06:00:33;;;;;;;11.53;3.00;;;;;;;;;;6061489;23;20223;-94
2024/01/16 11:27:54;;;;;;;6.87;2.70;;;;;;;;;;6035303;23;20197;-91
2024/01/16 11:30:59;;;;;;;11.77;3.00;;;;;;;;;;6085427;23;20207;-92
2024/01/16 11:34:09;;;;;;;9.93;3.27;;;;;;;;;;6085884;23;20250;-93
2024/01/16 11:37:28;;;;;;;7.50;3.33;;;;;;;;;;6086790;23;20170;-92
2024/01/16 11:40:37;;;;;;;9.37;2.90;;;;;;;;;;6087228;23;20245;-90
2024/01/16 11:43:44;;;;;;;9.50;3.47;;;;;;;;;;6088625;23;20186;-92
2024/01/16 11:47:04;;;;;;;8.13;3.20;;;;;;;;;;6086746;23;20219;-93
2024/01/16 11:50:11;;;;;;;10.60;3.30;;;;;;;;;;6085638;23;20159;-93
2024/01/16 11:53:40;;;;;;;10.63;3.13;;;;;;;;;;6085335;23;20174;-93
2024/01/16 11:57:07;;;;;;;8.00;3.13;;;;;;;;;;6087724;23;20174;-92
2024/01/16 12:00:21;;;;;;;7.90;2.90;;;;;;;;;;6088269;23;20655;-91
2024/01/16 12:03:32;;;;;;;9.13;3.43;;;;;;;;;;6088920;23;20183;-91
2024/01/16 12:06:37;;;;;;;12.47;3.60;;;;;;;;;;6090288;23;20226;-90
2024/01/16 12:09:43;;;;;;;6.20;2.93;;;;;;;;;;6089627;23;20162;-92
2024/01/16 12:12:50;;;;;;;11.43;3.83;;;;;;;;;;6088721;23;20174;-93
2024/01/16 12:16:03;;;;;;;15.60;5.13;;;;;;;;;;6087171;23;20192;-93
2024/01/16 12:19:09;;;;;;;13.03;3.70;;;;;;;;;;6088777;23;20606;-91
2024/01/16 12:22:18;;;;;;;7.70;3.37;;;;;;;;;;6089118;23;20170;-93
2024/01/16 12:25:24;;;;;;;8.37;3.20;;;;;;;;;;6087802;23;20191;-91
2024/01/16 12:28:30;;;;;;;15.83;3.93;;;;;;;;;;6087976;23;20186;-92
2024/01/16 12:31:38;;;;;;;8.50;2.60;;;;;;;;;;6087892;23;20169;-90
2024/01/16 12:34:47;;;;;;;7.67;3.40;;;;;;;;;;6087895;23;20174;-92
2024/01/16 12:38:00;;;;;;;10.00;3.43;;;;;;;;;;6090028;23;20203;-91
2024/01/16 12:41:08;;;;;;;9.50;3.67;;;;;;;;;;6088414;23;20195;-92
2024/01/16 12:44:15;;;;;;;15.67;4.40;;;;;;;;;;6087351;23;20201;-91
2024/01/16 12:47:23;;;;;;;6.33;2.90;;;;;;;;;;6088928;23;20166;-91
2024/01/16 12:50:30;;;;;;;9.13;3.90;;;;;;;;;;6088388;23;20230;-92
2024/01/16 12:53:39;;;;;;;9.70;3.23;;;;;;;;;;6090164;23;20178;-92
2024/01/16 12:56:46;;;;;;;12.40;3.53;;;;;;;;;;6092029;23;20227;-91
2024/01/16 12:59:52;;;;;;;9.43;3.70;;;;;;;;;;6090396;23;20166;-90
2024/01/16 13:03:10;;;;;;;6.07;2.57;;;;;;;;;;6091665;23;20166;-91
2024/01/16 13:09:40;;;;;;;11.13;3.87;;;;;;;;;;6091332;23;20235;-91
2024/01/16 13:12:47;;;;;;;9.40;3.30;;;;;;;;;;6091501;23;20158;-92
2024/01/16 13:15:52;;;;;;;8.70;3.00;;;;;;;;;;6089446;23;20215;-92
2024/01/16 13:19:09;;;;;;;9.50;3.00;;;;;;;;;;6089864;23;20178;-89
2024/01/16 13:22:16;;;;;;;10.83;3.40;;;;;;;;;;6090997;23;20179;-92
2024/01/16 13:25:27;;;;;;;12.07;3.30;;;;;;;;;;6091734;23;20168;-91
2024/01/16 13:28:41;;;;;;;7.80;3.80;;;;;;;;;;6091347;23;20194;-90
2024/01/16 13:31:47;;;;;;;12.20;4.00;;;;;;;;;;6089899;23;20216;-92
2024/01/16 13:34:57;;;;;;;9.73;3.17;;;;;;;;;;6090610;23;20178;-92
2024/01/16 13:38:03;;;;;;;12.30;3.57;;;;;;;;;;6091118;23;20162;-91
2024/01/16 13:41:11;;;;;;;8.97;3.50;;;;;;;;;;6090777;23;20227;-92
2024/01/16 13:44:16;;;;;;;11.10;4.07;;;;;;;;;;6089662;23;20186;-94
2024/01/16 13:47:30;;;;;;;14.10;4.40;;;;;;;;;;6090766;23;20175;-93
2024/01/16 13:50:40;;;;;;;9.63;3.90;;;;;;;;;;6089959;23;20155;-90
2024/01/16 13:53:45;;;;;;;6.97;3.00;;;;;;;;;;6089802;23;20627;-92
2024/01/16 13:56:52;;;;;;;8.67;4.03;;;;;;;;;;6090910;23;20244;-93
2024/01/16 13:59:58;;;;;;;8.33;3.73;;;;;;;;;;6090989;23;20175;-92
2024/01/16 14:03:07;;;;;;;9.57;3.73;;;;;;;;;;6091640;23;20254;-91
2024/01/16 14:06:29;;;;;;;10.37;4.03;;;;;;;;;;6090855;23;20200;-90
2024/01/16 14:09:50;;;;;;;10.30;4.00;;;;;;;;;;6091717;23;20194;-92
2024/01/16 14:12:59;;;;;;;10.70;4.33;;;;;;;;;;6091160;23;20204;-93
2024/01/16 14:16:24;;;;;;;9.57;3.93;;;;;;;;;;6091746;23;20170;-92
2024/01/16 14:19:30;;;;;;;10.83;3.40;;;;;;;;;;6089810;23;20167;-92
2024/01/16 14:22:35;;;;;;;9.63;3.87;;;;;;;;;;6088968;23;20183;-93
2024/01/16 14:25:40;;;;;;;10.70;4.13;;;;;;;;;;6086172;23;20298;-93
2024/01/16 14:28:49;;;;;;;10.23;4.03;;;;;;;;;;6087240;23;20194;-91
2024/01/16 14:32:00;;;;;;;12.63;4.40;;;;;;;;;;6088393;23;20170;-91
2024/01/16 14:35:07;;;;;;;16.97;4.97;;;;;;;;;;6088033;23;20254;-91
2024/01/16 14:41:34;;;;;;;12.17;3.90;;;;;;;;;;6088103;23;20219;-92
2024/01/16 14:44:41;;;;;;;6.83;3.27;;;;;;;;;;6086710;23;20251;-92
2024/01/16 14:47:53;;;;;;;11.43;3.83;;;;;;;;;;6087062;23;20170;-91
2024/01/16 14:50:58;;;;;;;15.60;4.90;;;;;;;;;;6086692;23;20150;-92
2024/01/16 14:54:04;;;;;;;15.20;4.33;;;;;;;;;;6086028;23;20174;-92
2024/01/16 14:57:11;;;;;;;15.10;5.17;;;;;;;;;;6087996;23;20210;-91
2024/01/16 15:00:22;;;;;;;9.60;3.70;;;;;;;;;;6090056;23;20174;-95
2024/01/16 15:03:28;;;;;;;8.97;4.33;;;;;;;;;;6088228;23;20184;-91
2024/01/16 15:06:35;;;;;;;13.30;4.23;;;;;;;;;;6089258;23;20219;-92
2024/01/16 15:09:46;;;;;;;11.67;4.27;;;;;;;;;;6088895;23;20188;-93
2024/01/16 15:12:57;;;;;;;10.80;4.30;;;;;;;;;;6087225;23;20192;-91
2024/01/16 15:16:05;;;;;;;10.23;3.80;;;;;;;;;;6087146;23;20484;-94
2024/01/16 15:19:12;;;;;;;9.57;3.80;;;;;;;;;;6087624;23;20168;-92
2024/01/16 15:22:18;;;;;;;12.60;4.23;;;;;;;;;;6087802;23;20158;-91
2024/01/16 15:25:29;;;;;;;12.10;4.93;;;;;;;;;;6089923;23;20205;-91
2024/01/16 15:28:36;;;;;;;15.60;5.60;;;;;;;;;;6105832;23;20562;-93
2024/01/16 15:31:43;;;;;;;18.50;5.27;;;;;;;;;;6090317;23;20166;-92
2024/01/16 15:34:49;;;;;;;16.03;5.53;;;;;;;;;;6090284;23;20203;-92
2024/01/16 15:37:55;;;;;;;18.03;6.20;;;;;;;;;;6088648;23;20174;-90
2024/01/16 15:41:03;;;;;;;17.00;6.17;;;;;;;;;;6089211;23;20158;-92
2024/01/16 15:44:09;;;;;;;16.00;5.87;;;;;;;;;;6089358;23;20202;-92
2024/01/16 15:51:06;;;;;;;14.20;6.63;;;;;;;;;;6088302;23;20242;-91
2024/01/16 15:54:15;;;;;;;29.27;10.43;;;;;;;;;;6089381;23;20174;-94
2024/01/16 15:57:33;;;;;;;19.37;7.53;;;;;;;;;;6087704;23;20170;-90
2024/01/16 16:04:03;;;;;;;15.40;5.83;;;;;;;;;;6088356;23;20207;-92
2024/01/16 16:07:13;;;;;;;18.10;7.20;;;;;;;;;;6085907;23;20179;-92
2024/01/16 16:10:19;;;;;;;15.80;7.30;;;;;;;;;;6086392;23;20155;-92
2024/01/16 16:13:30;;;;;;;14.50;6.73;;;;;;;;;;6085230;23;20251;-90
2024/01/16 16:16:36;;;;;;;12.33;6.03;;;;;;;;;;6085605;23;20183;-92
2024/01/16 16:19:42;;;;;;;12.70;6.60;;;;;;;;;;6087843;23;20150;-91
2024/01/16 16:22:53;;;;;;;16.80;7.37;;;;;;;;;;6087159;23;20195;-91
2024/01/16 16:25:59;;;;;;;12.77;6.50;;;;;;;;;;6086085;23;20186;-90
2024/01/16 16:29:06;;;;;;;13.43;5.83;;;;;;;;;;6087748;23;20190;-91
2024/01/16 16:32:18;;;;;;;12.97;6.10;;;;;;;;;;6088078;23;20220;-88
2024/01/16 16:35:24;;;;;;;20.80;6.53;;;;;;;;;;6088997;23;20159;-90
2024/01/16 16:38:32;;;;;;;13.97;6.57;;;;;;;;;;6088474;23;20174;-91
2024/01/16 16:41:42;;;;;;;15.83;7.30;;;;;;;;;;6088166;23;20215;-90
2024/01/16 16:44:47;;;;;;;16.83;6.43;;;;;;;;;;6088945;23;20194;-91
2024/01/16 16:47:53;;;;;;;16.33;6.40;;;;;;;;;;6088836;23;20227;-91
2024/01/16 16:50:59;;;;;;;16.60;7.20;;;;;;;;;;6089318;23;20246;-91
2024/01/16 16:54:06;;;;;;;14.50;5.60;;;;;;;;;;6090849;23;20158;-91
2024/01/16 16:57:13;;;;;;;16.93;6.30;;;;;;;;;;6089568;23;20174;-92
2024/01/16 17:03:41;;;;;;;17.27;7.97;;;;;;;;;;6090640;23;20203;-91
2024/01/16 17:06:47;;;;;;;21.97;7.83;;;;;;;;;;6089490;23;20179;-90
2024/01/16 17:09:56;;;;;;;22.60;8.43;;;;;;;;;;6090821;23;20151;-91
2024/01/16 17:13:02;;;;;;;22.43;8.20;;;;;;;;;;6090233;23;20175;-91
2024/01/16 17:16:09;;;;;;;25.07;8.90;;;;;;;;;;6091440;23;20162;-93
2024/01/16 17:19:15;;;;;;;29.57;11.07;;;;;;;;;;6088915;23;20162;-92
2024/01/16 17:22:24;;;;;;;27.60;9.43;;;;;;;;;;6089341;23;20158;-92
2024/01/16 17:25:37;;;;;;;19.30;7.20;;;;;;;;;;6073257;23;20197;-89
2024/01/16 17:28:43;;;;;;;26.13;9.87;;;;;;;;;;6088662;23;20231;-91
2024/01/16 17:31:49;;;;;;;28.97;9.00;;;;;;;;;;6088002;23;20174;-88
2024/01/16 17:34:56;;;;;;;60.40;20.10;;;;;;;;;;6088597;23;20175;-87
2024/01/16 17:38:01;;;;;;;36.93;12.97;;;;;;;;;;6089366;23;20154;-90
2024/01/16 17:41:10;;;;;;;29.43;10.67;;;;;;;;;;6089347;23;20196;-91
2024/01/16 17:44:22;;;;;;;25.93;9.50;;;;;;;;;;6089614;23;20215;-88
2024/01/16 17:47:27;;;;;;;22.87;7.73;;;;;;;;;;6089465;23;20227;-90
2024/01/16 17:50:33;;;;;;;18.30;7.67;;;;;;;;;;6090286;23;20210;-92
2024/01/16 17:53:42;;;;;;;18.00;7.60;;;;;;;;;;6090206;23;20192;-92
2024/01/16 17:56:51;;;;;;;36.13;13.73;;;;;;;;;;6071584;23;20171;-90
2024/01/16 17:59:57;;;;;;;28.87;9.63;;;;;;;;;;6092896;23;20166;-88
2024/01/16 18:03:12;;;;;;;27.63;10.60;;;;;;;;;;6092275;23;20203;-94
2024/01/16 18:09:46;;;;;;;19.40;8.47;;;;;;;;;;6091862;23;20224;-91
2024/01/16 18:12:59;;;;;;;18.57;7.37;;;;;;;;;;6092499;23;20162;-92
2024/01/16 18:16:13;;;;;;;18.73;7.87;;;;;;;;;;6091455;23;20187;-91
2024/01/16 23:03:21;;;;;;;16.43;6.83;;;;;;;;;;6029540;23;20191;-91
2024/01/16 23:06:27;;;;;;;18.73;7.80;;;;;;;;;;6073618;23;20190;-90
2024/01/16 23:09:33;;;;;;;17.53;7.53;;;;;;;;;;6074196;23;20584;-90
2024/01/16 23:12:39;;;;;;;23.50;7.43;;;;;;;;;;6073501;23;20201;-89
2024/01/16 23:15:45;;;;;;;13.57;6.70;;;;;;;;;;6073432;23;20175;-91
2024/01/16 23:18:59;;;;;;;20.87;7.43;;;;;;;;;;6078297;23;20179;-88
2024/01/16 23:22:05;;;;;;;15.83;6.93;;;;;;;;;;6074688;23;20222;-92
2024/01/16 23:25:11;;;;;;;17.60;7.87;;;;;;;;;;6075697;23;20194;-90
2024/01/16 23:28:18;;;;;;;21.83;7.73;;;;;;;;;;6074828;23;20257;-89
2024/01/16 23:31:24;;;;;;;20.33;7.53;;;;;;;;;;6074724;23;20188;-93
2024/01/16 23:34:33;;;;;;;23.23;7.73;;;;;;;;;;6075359;23;20166;-91
2024/01/16 23:37:43;;;;;;;21.63;8.17;;;;;;;;;;6062721;23;20243;-89
2024/01/16 23:40:50;;;;;;;18.70;7.83;;;;;;;;;;6076714;23;20243;-90
2024/01/16 23:43:56;;;;;;;24.63;8.20;;;;;;;;;;6058616;23;20159;-90
2024/01/16 23:47:02;;;;;;;18.93;7.97;;;;;;;;;;6075350;23;20183;-90
2024/01/16 23:50:09;;;;;;;18.77;7.20;;;;;;;;;;6076522;23;20175;-91
2024/01/16 23:53:15;;;;;;;18.37;7.17;;;;;;;;;;6076154;23;20193;-91
2024/01/16 23:56:21;;;;;;;20.47;7.77;;;;;;;;;;6072806;23;20170;-92
2024/01/16 23:59:26;;;;;;;14.20;6.63;;;;;;;;;;6072716;23;20180;-94
